Time;durP1;ratioP1;P1;durP2;ratioP2;P2;SDS_P1;SDS_P2;PMS_P1;PMS_P2;Temp;Humidity;BMP_temperature;BMP_pressure;BME280_temperature;BME280_humidity;BME280_pressure;Samples;Min_cycle;Max_cycle;Signal;HPM_P1;HPM_P2
2022/07/17 00:01:03;;;;;;;2.25;2.05;;;12.10;58.90;;;;;;5029350;28;20227;-52
2022/07/17 00:03:34;;;;;;;2.38;2.17;;;12.10;58.70;;;;;;5030953;28;20656;-55
2022/07/17 00:06:05;;;;;;;2.20;2.10;;;12.20;58.80;;;;;;5028978;28;20193;-56
2022/07/17 00:08:36;;;;;;;2.00;1.80;;;12.20;58.80;;;;;;5011444;28;20197;-53
2022/07/17 00:11:07;;;;;;;2.38;1.83;;;12.20;58.70;;;;;;5016435;28;20250;-52
2022/07/17 00:13:39;;;;;;;2.30;2.10;;;12.20;58.70;;;;;;5030412;28;20196;-53
2022/07/17 00:16:11;;;;;;;2.15;2.05;;;12.20;58.70;;;;;;5030154;28;20184;-51
2022/07/17 00:18:41;;;;;;;2.03;1.92;;;12.30;58.70;;;;;;5030098;28;20195;-50
2022/07/17 00:21:15;;;;;;;2.35;1.83;;;12.30;58.60;;;;;;5025225;28;20213;-53
2022/07/17 00:23:46;;;;;;;1.95;1.83;;;12.30;58.60;;;;;;5010197;28;20601;-50
2022/07/17 00:26:16;;;;;;;1.80;1.70;;;12.40;58.60;;;;;;5010901;28;20193;-52
2022/07/17 00:28:49;;;;;;;2.05;1.65;;;12.40;58.50;;;;;;5017025;28;20200;-55
2022/07/17 00:31:20;;;;;;;1.70;1.60;;;12.40;58.30;;;;;;5021168;28;20228;-51
2022/07/17 00:33:50;;;;;;;1.83;1.73;;;12.50;58.40;;;;;;5029969;28;20656;-52
2022/07/17 00:36:21;;;;;;;1.83;1.73;;;12.50;58.30;;;;;;5030742;28;20551;-53
2022/07/17 00:38:52;;;;;;;1.85;1.60;;;12.50;58.30;;;;;;5030212;28;20199;-53
2022/07/17 00:41:22;;;;;;;1.83;1.73;;;12.50;58.30;;;;;;5029893;28;20696;-49
2022/07/17 00:43:55;;;;;;;2.00;1.80;;;12.60;58.30;;;;;;5030125;28;20200;-49
2022/07/17 00:46:26;;;;;;;2.13;1.85;;;12.60;58.30;;;;;;5030392;28;20200;-51
2022/07/17 00:48:57;;;;;;;1.70;1.60;;;12.60;58.30;;;;;;5030566;28;20205;-55
2022/07/17 00:51:27;;;;;;;2.53;1.85;;;12.60;58.20;;;;;;5023679;28;20735;-56
2022/07/17 00:54:00;;;;;;;3.65;2.00;;;12.60;58.20;;;;;;5009444;28;20232;-51
2022/07/17 00:56:31;;;;;;;3.50;1.98;;;12.70;58.20;;;;;;5010212;28;20208;-50
2022/07/17 00:59:04;;;;;;;4.13;2.28;;;12.70;58.00;;;;;;5010551;28;20199;-53
2022/07/17 01:01:35;;;;;;;2.85;1.90;;;12.70;58.00;;;;;;5011304;28;20197;-51
2022/07/17 01:04:06;;;;;;;4.50;2.55;;;12.70;57.90;;;;;;5012265;28;20572;-54
2022/07/17 01:06:36;;;;;;;9.75;3.22;;;12.70;57.90;;;;;;5013239;28;20205;-56
2022/07/17 01:09:07;;;;;;;5.43;2.83;;;12.80;57.80;;;;;;5012900;28;20203;-55
2022/07/17 01:11:38;;;;;;;4.82;2.90;;;12.80;57.70;;;;;;5013108;28;20213;-55
2022/07/17 01:14:11;;;;;;;6.35;2.33;;;12.80;57.70;;;;;;5025154;28;20233;-48
2022/07/17 01:16:42;;;;;;;6.72;2.75;;;12.80;57.70;;;;;;5052542;28;20221;-53
2022/07/17 01:19:14;;;;;;;5.30;2.80;;;12.80;57.70;;;;;;5052558;28;20231;-57
2022/07/17 01:21:48;;;;;;;4.90;2.40;;;12.90;57.80;;;;;;5040455;28;20200;-48
2022/07/17 01:24:19;;;;;;;6.82;2.92;;;12.90;57.80;;;;;;5032022;28;20199;-47
2022/07/17 01:26:51;;;;;;;4.97;2.53;;;12.90;57.70;;;;;;5032050;28;20227;-55
2022/07/17 01:29:22;;;;;;;3.70;2.30;;;12.90;57.70;;;;;;5032087;28;20224;-50
2022/07/17 01:31:53;;;;;;;4.35;2.63;;;12.90;57.70;;;;;;5032279;28;20714;-52
2022/07/17 01:34:24;;;;;;;5.38;2.20;;;12.90;57.70;;;;;;5032422;28;20211;-55
2022/07/17 01:36:56;;;;;;;4.22;2.50;;;13.00;57.70;;;;;;5031748;28;20564;-49
2022/07/17 01:42:11;;;;;;;5.57;2.75;;;13.00;57.60;;;;;;5078752;22;20769;-46
2022/07/17 01:44:41;;;;;;;6.18;2.30;;;13.00;57.60;;;;;;5071513;28;20206;-44
2022/07/17 01:47:15;;;;;;;4.78;2.22;;;13.00;57.60;;;;;;5065208;28;20188;-44
2022/07/17 01:49:48;;;;;;;5.38;2.72;;;13.00;57.50;;;;;;5051895;28;20227;-46
2022/07/17 01:52:20;;;;;;;4.93;2.70;;;13.00;57.50;;;;;;5052409;28;20219;-46
2022/07/17 01:54:51;;;;;;;4.38;2.47;;;13.00;57.60;;;;;;5051929;28;20542;-45
2022/07/17 01:57:22;;;;;;;5.72;2.10;;;13.00;57.50;;;;;;5051211;28;20207;-45
2022/07/17 01:59:53;;;;;;;5.00;2.60;;;13.10;57.50;;;;;;5051037;28;20215;-45
2022/07/17 02:02:24;;;;;;;5.95;2.38;;;13.10;57.50;;;;;;5051593;28;20559;-46
2022/07/17 02:04:55;;;;;;;5.38;2.35;;;13.10;57.40;;;;;;5051833;28;20286;-46
2022/07/17 02:07:27;;;;;;;4.90;2.35;;;13.10;57.40;;;;;;5051545;28;20200;-45
2022/07/17 02:09:58;;;;;;;5.32;2.40;;;13.10;57.40;;;;;;5051124;28;20216;-47
2022/07/17 02:12:29;;;;;;;4.95;2.15;;;13.20;57.50;;;;;;5051085;28;20219;-45
2022/07/17 02:15:00;;;;;;;4.25;2.28;;;13.10;57.40;;;;;;5058016;28;20226;-44
2022/07/17 02:17:30;;;;;;;5.82;2.42;;;13.20;57.50;;;;;;5033524;28;20188;-47
2022/07/17 02:20:01;;;;;;;3.78;2.00;;;13.20;57.50;;;;;;5031515;28;20231;-47
2022/07/17 02:22:34;;;;;;;5.03;2.20;;;13.10;57.40;;;;;;5049596;28;20195;-45
2022/07/17 02:25:05;;;;;;;4.93;2.20;;;13.20;57.50;;;;;;5050889;28;20192;-45
2022/07/17 02:27:35;;;;;;;5.32;2.25;;;13.20;57.50;;;;;;5050924;28;20195;-45
2022/07/17 02:30:08;;;;;;;4.55;2.35;;;13.20;57.60;;;;;;5050352;28;20222;-45
2022/07/17 02:32:38;;;;;;;3.00;2.00;;;13.20;57.60;;;;;;5051004;28;20230;-46
2022/07/17 02:35:11;;;;;;;6.45;2.10;;;13.20;57.60;;;;;;5050970;28;20200;-45
2022/07/17 02:37:45;;;;;;;4.63;2.50;;;13.20;57.60;;;;;;5050969;28;20202;-48
2022/07/17 02:42:57;;;;;;;5.40;2.17;;;13.20;57.50;;;;;;5781560;22;20270;-50
2022/07/17 02:45:28;;;;;;;4.20;2.13;;;13.20;57.50;;;;;;5068650;22;20242;-52
2022/07/17 02:47:59;;;;;;;3.22;2.15;;;13.30;58.10;;;;;;5051382;28;20282;-56
2022/07/17 02:50:30;;;;;;;3.40;2.20;;;13.30;57.50;;;;;;5050906;28;20218;-53
2022/07/17 02:53:02;;;;;;;3.50;2.28;;;13.30;57.50;;;;;;5050503;28;20903;-52
2022/07/17 02:55:33;;;;;;;4.38;2.45;;;13.20;57.50;;;;;;5050530;28;20196;-55
2022/07/17 02:58:04;;;;;;;3.55;1.77;;;13.30;57.60;;;;;;5050832;28;20205;-52
2022/07/17 03:00:35;;;;;;;5.13;2.40;;;13.20;57.50;;;;;;5050353;28;20242;-51
2022/07/17 03:03:05;;;;;;;4.47;2.15;;;13.20;57.50;;;;;;5050552;28;20195;-56
2022/07/17 03:05:36;;;;;;;4.30;2.20;;;13.20;57.60;;;;;;5050431;28;20200;-55
2022/07/17 03:08:09;;;;;;;5.78;2.75;;;13.20;57.60;;;;;;5050773;28;20692;-57
2022/07/17 03:10:39;;;;;;;3.13;1.92;;;13.30;57.60;;;;;;5050804;28;20227;-58
2022/07/17 03:13:10;;;;;;;5.47;1.92;;;13.30;57.70;;;;;;5050481;28;20273;-54
2022/07/17 03:15:41;;;;;;;3.05;2.13;;;13.30;57.60;;;;;;5050537;28;20226;-51
2022/07/17 03:18:12;;;;;;;4.40;2.83;;;13.30;57.50;;;;;;5050269;28;20203;-52
2022/07/17 03:20:42;;;;;;;3.85;2.20;;;13.30;57.50;;;;;;5050319;28;20246;-54
2022/07/17 03:23:15;;;;;;;3.92;2.22;;;13.30;57.60;;;;;;5050265;28;20673;-52
2022/07/17 03:25:45;;;;;;;4.05;1.80;;;13.30;57.60;;;;;;5050239;28;20206;-52
2022/07/17 03:28:16;;;;;;;3.40;2.03;;;13.30;57.60;;;;;;5050120;28;20191;-53
2022/07/17 03:30:47;;;;;;;3.28;2.10;;;13.30;57.60;;;;;;5049742;28;20216;-53
2022/07/17 03:33:17;;;;;;;3.85;2.13;;;13.30;57.60;;;;;;5049653;28;20879;-52
2022/07/17 03:35:48;;;;;;;3.47;1.85;;;13.30;57.60;;;;;;5049914;28;20204;-51
2022/07/17 03:38:21;;;;;;;2.83;1.88;;;13.30;57.60;;;;;;5049370;28;20203;-50
2022/07/17 03:40:52;;;;;;;3.33;2.03;;;13.30;57.60;;;;;;5049522;28;20203;-52
2022/07/17 03:43:22;;;;;;;4.32;1.88;;;13.30;57.60;;;;;;5069320;22;20202;-46
2022/07/17 03:45:53;;;;;;;2.63;2.00;;;13.30;57.60;;;;;;5040889;28;20203;-46
2022/07/17 03:48:24;;;;;;;2.95;2.10;;;13.40;57.70;;;;;;5049610;28;20210;-46
2022/07/17 03:50:55;;;;;;;3.60;1.92;;;13.30;57.50;;;;;;5034085;28;20692;-45
2022/07/17 03:53:27;;;;;;;3.65;1.98;;;13.30;57.50;;;;;;5029658;28;20228;-46
2022/07/17 03:55:58;;;;;;;3.53;1.95;;;13.40;57.50;;;;;;5029654;28;20227;-49
2022/07/17 03:58:29;;;;;;;3.25;2.08;;;13.40;57.50;;;;;;5030045;28;20226;-45
2022/07/17 04:00:59;;;;;;;4.63;2.22;;;13.40;57.40;;;;;;5029587;28;20762;-46
2022/07/17 04:03:30;;;;;;;3.30;1.90;;;13.40;57.40;;;;;;5029836;28;20204;-46
2022/07/17 04:06:01;;;;;;;4.68;2.05;;;13.40;57.30;;;;;;5030033;28;20206;-46
2022/07/17 04:08:33;;;;;;;3.05;2.00;;;13.40;57.20;;;;;;5030008;28;20196;-45
2022/07/17 04:11:04;;;;;;;2.17;1.77;;;13.40;57.10;;;;;;5029985;28;20231;-46
2022/07/17 04:13:35;;;;;;;4.70;1.75;;;13.40;57.10;;;;;;5029845;28;20220;-45
2022/07/17 04:16:06;;;;;;;2.70;1.75;;;13.40;57.10;;;;;;5029319;28;20211;-45
2022/07/17 04:18:38;;;;;;;3.65;1.70;;;13.40;57.10;;;;;;5029681;28;20200;-46
2022/07/17 04:21:11;;;;;;;3.05;1.80;;;13.40;57.10;;;;;;5029528;28;20220;-46
2022/07/17 04:23:43;;;;;;;3.72;1.90;;;13.40;57.00;;;;;;5029230;28;20192;-46
2022/07/17 04:26:14;;;;;;;2.53;1.85;;;13.50;57.00;;;;;;5029029;28;20188;-45
2022/07/17 04:28:45;;;;;;;3.58;1.75;;;13.40;56.90;;;;;;5029472;28;20202;-45
2022/07/17 04:31:16;;;;;;;1.38;1.27;;;13.50;56.80;;;;;;5028670;28;20219;-44
2022/07/17 04:33:46;;;;;;;1.90;1.70;;;13.50;56.80;;;;;;5029677;28;20255;-44
2022/07/17 04:36:17;;;;;;;3.00;1.70;;;13.50;56.90;;;;;;5029806;28;20196;-44
2022/07/17 04:38:49;;;;;;;3.55;1.58;;;13.50;56.80;;;;;;5031058;28;20596;-46
2022/07/17 04:41:21;;;;;;;2.47;1.50;;;13.50;56.80;;;;;;5033374;28;20657;-46
2022/07/17 04:43:52;;;;;;;2.58;1.50;;;13.50;56.70;;;;;;5033638;28;20212;-45
2022/07/17 04:46:22;;;;;;;1.75;1.27;;;13.50;57.30;;;;;;5032991;28;20196;-45
2022/07/17 04:48:53;;;;;;;2.22;1.40;;;13.50;56.70;;;;;;5033365;28;20192;-46
2022/07/17 04:51:24;;;;;;;2.35;1.38;;;13.60;56.70;;;;;;5033175;28;20216;-44
2022/07/17 04:53:56;;;;;;;2.75;1.08;;;13.60;56.50;;;;;;5032915;28;20235;-46
2022/07/17 04:56:27;;;;;;;1.58;1.02;;;13.60;56.60;;;;;;5032932;28;20203;-46
2022/07/17 04:58:58;;;;;;;4.22;1.13;;;13.60;56.40;;;;;;5033179;28;20207;-45
2022/07/17 05:01:28;;;;;;;3.58;1.23;;;13.70;57.00;;;;;;5033690;28;20273;-45
2022/07/17 05:03:59;;;;;;;1.58;1.20;;;13.70;56.50;;;;;;5034159;28;20196;-47
2022/07/17 05:06:30;;;;;;;3.30;1.33;;;13.70;56.60;;;;;;5031104;28;20427;-45
2022/07/17 05:09:03;;;;;;;2.85;1.23;;;13.70;56.60;;;;;;5043098;28;20610;-45
2022/07/17 05:11:34;;;;;;;2.35;1.20;;;13.70;56.60;;;;;;5014281;28;20204;-44
2022/07/17 05:14:05;;;;;;;2.60;1.30;;;13.70;56.50;;;;;;5033690;28;20234;-46
2022/07/17 05:16:35;;;;;;;1.77;1.13;;;13.70;56.60;;;;;;5033394;28;20208;-46
2022/07/17 05:19:06;;;;;;;1.20;1.00;;;13.70;56.60;;;;;;5033552;28;20200;-45
2022/07/17 05:21:37;;;;;;;1.98;1.25;;;13.70;56.70;;;;;;5032918;28;20207;-45
2022/07/17 05:24:10;;;;;;;2.05;1.02;;;13.70;56.70;;;;;;5033315;28;20246;-45
2022/07/17 05:26:41;;;;;;;1.13;0.90;;;13.70;56.70;;;;;;5033666;28;20254;-45
2022/07/17 05:29:12;;;;;;;2.00;0.80;;;13.70;56.60;;;;;;5034504;28;20189;-45
2022/07/17 05:31:43;;;;;;;1.55;1.00;;;13.70;56.60;;;;;;5044687;28;20200;-45
2022/07/17 05:34:13;;;;;;;1.40;1.00;;;13.70;56.60;;;;;;5032872;28;20212;-45
2022/07/17 05:36:45;;;;;;;1.77;1.10;;;13.70;56.60;;;;;;5033528;28;20204;-45
2022/07/17 05:39:18;;;;;;;1.15;1.05;;;13.70;56.60;;;;;;5031021;28;20199;-46
2022/07/17 05:41:49;;;;;;;1.42;1.00;;;13.70;56.40;;;;;;5032373;28;20222;-45
2022/07/17 05:44:19;;;;;;;1.85;0.90;;;13.70;56.50;;;;;;5074532;22;20223;-48
2022/07/17 05:46:50;;;;;;;1.40;1.02;;;13.70;56.40;;;;;;5041283;28;20207;-44
2022/07/17 05:49:21;;;;;;;1.10;0.90;;;13.80;56.50;;;;;;5031156;28;20690;-47
2022/07/17 05:51:51;;;;;;;1.70;1.08;;;13.70;56.50;;;;;;5032117;28;20204;-44
2022/07/17 05:54:26;;;;;;;1.77;1.10;;;13.80;56.50;;;;;;5032038;28;20223;-44
2022/07/17 05:56:56;;;;;;;1.90;0.98;;;13.70;56.50;;;;;;5031768;28;20196;-57
2022/07/17 05:59:27;;;;;;;2.17;0.90;;;13.70;56.60;;;;;;5031040;28;20220;-57
2022/07/17 06:01:58;;;;;;;1.20;1.00;;;13.80;56.70;;;;;;5030963;28;20188;-46
2022/07/17 06:04:28;;;;;;;1.58;0.98;;;13.70;56.60;;;;;;5032190;28;20211;-53
2022/07/17 06:06:59;;;;;;;1.13;0.93;;;13.70;56.70;;;;;;5031291;28;20192;-51
2022/07/17 06:09:32;;;;;;;1.25;1.00;;;13.80;56.70;;;;;;5031564;28;20235;-46
2022/07/17 06:12:02;;;;;;;1.08;0.90;;;13.80;56.60;;;;;;5031648;28;20663;-49
2022/07/17 06:14:33;;;;;;;1.50;0.77;;;13.80;56.60;;;;;;5031115;28;20297;-47
2022/07/17 06:17:04;;;;;;;1.15;1.00;;;13.80;56.60;;;;;;5031585;28;20207;-52
2022/07/17 06:19:34;;;;;;;1.52;0.80;;;13.80;56.60;;;;;;5030402;28;20694;-48
2022/07/17 06:22:05;;;;;;;1.35;0.90;;;13.80;56.60;;;;;;5025915;28;20196;-47
2022/07/17 06:24:37;;;;;;;1.00;0.73;;;13.80;56.60;;;;;;5013373;28;20211;-50
2022/07/17 06:27:08;;;;;;;1.08;1.00;;;13.80;56.60;;;;;;5031945;28;20223;-51
2022/07/17 06:29:39;;;;;;;0.80;0.80;;;13.80;57.20;;;;;;5030477;28;20243;-47
2022/07/17 06:32:10;;;;;;;1.95;0.77;;;13.80;56.70;;;;;;5030706;28;20200;-46
2022/07/17 06:34:41;;;;;;;1.33;0.82;;;13.80;56.70;;;;;;5031684;28;20354;-46
2022/07/17 06:37:12;;;;;;;0.85;0.73;;;13.80;56.80;;;;;;5028252;28;20208;-50
2022/07/17 06:39:44;;;;;;;0.98;0.80;;;13.80;56.90;;;;;;5013630;28;20235;-52
2022/07/17 06:42:15;;;;;;;1.20;0.80;;;13.80;57.20;;;;;;5012971;28;20212;-46
2022/07/17 06:44:46;;;;;;;1.17;0.80;;;13.80;56.70;;;;;;5032480;28;20816;-52
2022/07/17 06:47:16;;;;;;;1.25;0.70;;;13.80;56.70;;;;;;5031310;28;20192;-51
2022/07/17 06:49:47;;;;;;;1.48;0.60;;;13.90;56.80;;;;;;5031193;28;20232;-48
2022/07/17 06:52:18;;;;;;;0.90;0.80;;;13.90;56.90;;;;;;5030883;28;20196;-50
2022/07/17 06:54:50;;;;;;;0.77;0.70;;;13.80;56.70;;;;;;5030857;28;20683;-50
2022/07/17 06:57:21;;;;;;;1.08;0.63;;;13.90;56.80;;;;;;5031543;28;20196;-49
2022/07/17 06:59:52;;;;;;;0.88;0.75;;;13.90;56.90;;;;;;5030489;28;20220;-52
2022/07/17 07:02:22;;;;;;;1.05;0.80;;;13.90;56.90;;;;;;5029417;28;20207;-49
2022/07/17 07:04:53;;;;;;;1.05;0.80;;;13.90;56.90;;;;;;5029428;28;20192;-49
2022/07/17 07:07:24;;;;;;;2.17;1.80;;;13.90;57.00;;;;;;5030838;28;20570;-50
2022/07/17 07:09:56;;;;;;;1.58;1.30;;;14.00;57.10;;;;;;5029506;28;20212;-52
2022/07/17 07:12:27;;;;;;;1.45;1.10;;;13.90;57.10;;;;;;5029673;28;20204;-49
2022/07/17 07:14:58;;;;;;;3.65;1.42;;;14.00;57.10;;;;;;5029887;28;21419;-44
2022/07/17 07:17:28;;;;;;;1.40;1.30;;;14.00;57.10;;;;;;5030185;28;20200;-59
2022/07/17 07:19:59;;;;;;;1.30;1.20;;;14.00;57.10;;;;;;5029230;28;20212;-51
2022/07/17 07:22:30;;;;;;;1.90;1.60;;;14.00;57.00;;;;;;5030770;28;20211;-55
2022/07/17 07:25:02;;;;;;;1.70;1.60;;;14.00;57.10;;;;;;5029534;28;20597;-51
2022/07/17 07:27:33;;;;;;;2.63;1.63;;;14.00;57.10;;;;;;5030353;28;20193;-46
2022/07/17 07:30:04;;;;;;;1.40;1.30;;;14.00;57.00;;;;;;5030240;28;20683;-46
2022/07/17 07:32:34;;;;;;;2.88;1.70;;;14.00;57.10;;;;;;5029893;28;20196;-46
2022/07/17 07:35:05;;;;;;;1.83;1.60;;;14.00;57.10;;;;;;5031287;28;20619;-52
2022/07/17 07:37:36;;;;;;;1.42;1.33;;;14.00;57.10;;;;;;5021724;28;20280;-56
2022/07/17 07:40:10;;;;;;;1.67;1.58;;;14.00;57.10;;;;;;5030221;28;20226;-47
2022/07/17 07:42:41;;;;;;;1.60;1.50;;;14.00;57.10;;;;;;5030604;28;20582;-57
2022/07/17 07:45:12;;;;;;;1.80;1.55;;;14.00;57.10;;;;;;5013881;28;20249;-48
2022/07/17 07:47:47;;;;;;;2.65;1.85;;;14.10;57.10;;;;;;5031081;28;20287;-48
2022/07/17 07:50:18;;;;;;;2.25;2.00;;;14.10;57.20;;;;;;5020815;28;20235;-54
2022/07/17 07:52:49;;;;;;;1.77;1.67;;;14.10;57.40;;;;;;5029605;28;20207;-52
2022/07/17 07:55:22;;;;;;;2.75;2.15;;;14.10;57.40;;;;;;5021989;28;20591;-48
2022/07/17 07:58:03;;;;;;;2.75;2.08;;;14.10;57.40;;;;;;5030508;28;20192;-48
2022/07/17 08:00:34;;;;;;;3.35;2.00;;;14.20;57.50;;;;;;5029609;28;20695;-45
2022/07/17 08:03:05;;;;;;;2.00;1.80;;;14.20;57.60;;;;;;5030789;28;20218;-47
2022/07/17 08:05:36;;;;;;;2.78;2.30;;;14.20;57.60;;;;;;5022445;28;20196;-46
2022/07/17 08:08:07;;;;;;;2.67;1.90;;;14.20;57.60;;;;;;5028511;28;20286;-55
2022/07/17 08:10:40;;;;;;;2.30;2.00;;;14.20;57.60;;;;;;5030686;28;20710;-59
2022/07/17 08:13:11;;;;;;;1.83;1.73;;;14.20;57.60;;;;;;5028608;28;20204;-47
2022/07/17 08:15:41;;;;;;;1.60;1.48;;;14.20;57.60;;;;;;5033710;28;20228;-51
2022/07/17 08:18:12;;;;;;;1.70;1.60;;;14.30;57.60;;;;;;5032544;28;20206;-47
2022/07/17 08:20:43;;;;;;;1.83;1.73;;;14.30;57.60;;;;;;5033117;28;20220;-46
2022/07/17 08:23:13;;;;;;;2.10;1.90;;;14.30;57.60;;;;;;5032901;28;20578;-46
2022/07/17 08:25:47;;;;;;;1.92;1.70;;;14.30;57.50;;;;;;5033166;28;20200;-51
2022/07/17 08:28:18;;;;;;;1.67;1.58;;;14.30;57.50;;;;;;5033310;28;20235;-59
2022/07/17 08:30:48;;;;;;;2.10;1.75;;;14.30;57.50;;;;;;5033454;28;20220;-45
2022/07/17 08:33:19;;;;;;;1.58;1.48;;;14.30;57.50;;;;;;5033472;28;20609;-57
2022/07/17 08:35:50;;;;;;;2.15;1.60;;;14.30;57.50;;;;;;5033593;28;20235;-53
2022/07/17 08:38:20;;;;;;;1.90;1.60;;;14.30;57.60;;;;;;5031628;28;20203;-45
2022/07/17 08:40:54;;;;;;;2.00;1.73;;;14.30;57.60;;;;;;5031901;28;20219;-52
2022/07/17 08:43:25;;;;;;;1.70;1.58;;;14.30;57.60;;;;;;5031287;28;20208;-55
2022/07/17 08:45:56;;;;;;;1.60;1.50;;;14.30;57.60;;;;;;5032644;28;20282;-50
2022/07/17 08:48:30;;;;;;;1.73;1.40;;;14.30;57.50;;;;;;5032064;28;20219;-55
2022/07/17 08:51:04;;;;;;;1.60;1.30;;;14.30;57.50;;;;;;5032804;28;20220;-45
2022/07/17 08:53:35;;;;;;;1.58;1.48;;;14.30;57.50;;;;;;5033001;28;20601;-49
2022/07/17 08:56:08;;;;;;;1.55;1.20;;;14.30;57.50;;;;;;5033330;28;20207;-58
2022/07/17 08:58:38;;;;;;;1.58;1.42;;;14.40;57.50;;;;;;5024496;28;20207;-59
2022/07/17 09:01:11;;;;;;;1.48;1.38;;;14.40;57.50;;;;;;5032306;28;20256;-59
2022/07/17 09:03:43;;;;;;;2.22;1.58;;;14.40;57.50;;;;;;5032227;28;20900;-54
2022/07/17 09:06:22;;;;;;;2.45;1.58;;;14.40;57.60;;;;;;5032311;28;20204;-54
2022/07/17 09:09:04;;;;;;;1.40;1.30;;;14.40;57.60;;;;;;5032825;28;20215;-58
2022/07/17 09:11:45;;;;;;;1.50;1.40;;;14.40;57.60;;;;;;5032272;28;20204;-51
2022/07/17 09:14:16;;;;;;;2.35;1.77;;;14.40;57.70;;;;;;5031981;28;20228;-60
2022/07/17 09:16:55;;;;;;;2.28;1.67;;;14.40;57.70;;;;;;5030729;28;20674;-50
2022/07/17 09:19:30;;;;;;;1.45;1.35;;;14.40;57.70;;;;;;5030760;28;20675;-51
2022/07/17 09:22:15;;;;;;;1.88;1.45;;;14.40;57.60;;;;;;5031285;28;20219;-56
2022/07/17 09:24:48;;;;;;;1.40;1.25;;;14.40;57.70;;;;;;5030410;28;20199;-53
2022/07/17 09:27:33;;;;;;;1.75;1.40;;;14.40;57.60;;;;;;5031351;28;20207;-52
2022/07/17 09:30:05;;;;;;;1.30;1.20;;;14.50;57.60;;;;;;5032175;28;20895;-54
2022/07/17 09:32:38;;;;;;;1.77;1.38;;;14.50;57.60;;;;;;5030965;28;20231;-52
2022/07/17 09:35:10;;;;;;;1.50;1.20;;;14.50;57.50;;;;;;5028818;28;20227;-48
2022/07/17 09:37:41;;;;;;;1.85;1.27;;;14.50;57.60;;;;;;5031029;28;20207;-59
2022/07/17 09:41:09;;;;;;;2.55;1.45;;;14.50;57.60;;;;;;5030762;28;20215;-50
2022/07/17 09:43:06;;;;;;;1.65;1.13;;;14.50;57.60;;;;;;5030759;28;20660;-52
2022/07/17 09:45:37;;;;;;;1.42;1.33;;;14.50;57.60;;;;;;5027940;28;20200;-52
2022/07/17 09:48:09;;;;;;;1.15;1.05;;;14.50;57.60;;;;;;5029879;28;20230;-53
2022/07/17 09:50:41;;;;;;;1.20;1.10;;;14.50;57.60;;;;;;5028418;28;20719;-56
2022/07/17 09:53:14;;;;;;;1.60;1.17;;;14.50;57.60;;;;;;5030360;28;20204;-54
2022/07/17 09:55:45;;;;;;;2.38;1.25;;;14.50;57.60;;;;;;5031186;28;20251;-60
2022/07/17 09:58:20;;;;;;;1.20;1.05;;;14.50;57.60;;;;;;5031019;28;20223;-57
2022/07/17 10:00:51;;;;;;;1.17;0.93;;;14.50;57.50;;;;;;5030785;28;20219;-60
2022/07/17 10:03:22;;;;;;;1.40;1.30;;;14.60;57.60;;;;;;5031267;28;20536;-54
2022/07/17 10:05:53;;;;;;;1.15;1.02;;;14.60;57.50;;;;;;5031860;28;20196;-48
2022/07/17 10:08:24;;;;;;;0.90;0.75;;;14.60;57.50;;;;;;5029737;28;20207;-57
2022/07/17 10:10:55;;;;;;;1.15;0.85;;;14.60;57.50;;;;;;5031853;28;20215;-55
2022/07/17 10:13:28;;;;;;;1.90;0.90;;;14.60;57.50;;;;;;5031125;28;20730;-51
2022/07/17 10:15:59;;;;;;;1.10;1.00;;;14.60;57.50;;;;;;5031793;28;20232;-57
2022/07/17 10:18:40;;;;;;;1.17;1.08;;;14.60;57.50;;;;;;5031364;28;20200;-56
2022/07/17 10:21:15;;;;;;;0.98;0.70;;;14.60;57.40;;;;;;5030924;28;20247;-48
2022/07/17 10:23:50;;;;;;;1.00;0.88;;;14.60;57.40;;;;;;5031226;28;20211;-56
2022/07/17 10:26:32;;;;;;;1.00;0.90;;;14.60;57.40;;;;;;5029324;28;20204;-45
2022/07/17 10:29:05;;;;;;;1.25;1.05;;;14.60;57.40;;;;;;5033248;28;20651;-51
2022/07/17 10:31:36;;;;;;;1.30;1.10;;;14.60;57.40;;;;;;5032047;28;20592;-54
2022/07/17 10:34:08;;;;;;;1.95;1.00;;;14.60;57.40;;;;;;5031309;28;20680;-45
2022/07/17 10:36:41;;;;;;;1.67;1.25;;;14.70;57.40;;;;;;5030300;28;20207;-50
2022/07/17 10:39:16;;;;;;;1.50;1.10;;;14.70;57.40;;;;;;5030860;28;20192;-46
2022/07/17 10:41:58;;;;;;;1.98;1.50;;;14.70;57.30;;;;;;5030437;28;20203;-49
2022/07/17 10:44:32;;;;;;;2.60;1.60;;;14.70;57.30;;;;;;5031704;28;20729;-53
2022/07/17 10:47:03;;;;;;;2.25;1.48;;;14.70;57.30;;;;;;5031193;28;20192;-53
2022/07/17 10:49:33;;;;;;;2.95;1.67;;;14.70;57.40;;;;;;5030978;28;20559;-50
2022/07/17 10:52:04;;;;;;;3.78;1.75;;;14.70;57.40;;;;;;5030911;28;20204;-50
2022/07/17 10:54:37;;;;;;;4.65;1.83;;;14.70;57.40;;;;;;5030552;28;20660;-50
2022/07/17 10:57:08;;;;;;;3.85;2.10;;;14.70;57.40;;;;;;5030390;28;20192;-53
2022/07/17 10:59:46;;;;;;;2.20;1.58;;;14.70;57.40;;;;;;5030778;28;20215;-51
2022/07/17 11:02:16;;;;;;;4.65;1.77;;;14.70;57.40;;;;;;5030735;28;20207;-53
2022/07/17 11:04:47;;;;;;;2.47;1.45;;;14.70;57.40;;;;;;5030613;28;20200;-50
2022/07/17 11:07:18;;;;;;;2.80;1.38;;;14.70;57.40;;;;;;5030696;28;20555;-52
2022/07/17 11:09:51;;;;;;;4.22;1.60;;;14.70;57.30;;;;;;5030826;28;20227;-48
2022/07/17 11:12:32;;;;;;;2.13;1.65;;;14.70;57.30;;;;;;5030169;28;20192;-47
2022/07/17 11:15:08;;;;;;;3.33;1.90;;;14.70;57.20;;;;;;5030391;28;20211;-49
2022/07/17 11:17:39;;;;;;;5.30;2.30;;;14.70;57.20;;;;;;5030337;28;20539;-48
2022/07/17 11:20:10;;;;;;;3.55;2.03;;;14.80;57.30;;;;;;5030101;28;20212;-49
2022/07/17 11:22:41;;;;;;;2.75;1.77;;;14.70;57.20;;;;;;5030116;28;20222;-46
2022/07/17 11:25:13;;;;;;;3.63;1.58;;;14.70;57.30;;;;;;5030635;28;20553;-54
2022/07/17 11:27:43;;;;;;;3.30;1.83;;;14.70;57.30;;;;;;5026709;28;20544;-49
2022/07/17 11:30:23;;;;;;;4.85;1.92;;;14.70;57.30;;;;;;5030329;28;20216;-52
2022/07/17 11:32:54;;;;;;;3.65;1.70;;;14.70;57.30;;;;;;5030595;28;20200;-50
2022/07/17 11:35:28;;;;;;;2.25;1.42;;;14.70;57.30;;;;;;5030175;28;20226;-51
2022/07/17 11:37:59;;;;;;;6.03;1.90;;;14.80;57.40;;;;;;5030353;28;20207;-50
2022/07/17 11:40:30;;;;;;;3.97;1.73;;;14.70;57.40;;;;;;5030412;28;20218;-46
2022/07/17 11:43:04;;;;;;;5.00;1.50;;;14.80;57.40;;;;;;5029860;28;20211;-49
2022/07/17 11:45:37;;;;;;;4.20;2.15;;;14.70;57.30;;;;;;5030484;28;20689;-46
2022/07/17 11:48:08;;;;;;;5.22;2.03;;;14.80;57.30;;;;;;5026243;28;20188;-49
2022/07/17 11:50:39;;;;;;;3.67;1.77;;;14.80;57.20;;;;;;5029918;28;20228;-51
2022/07/17 11:53:10;;;;;;;3.50;2.08;;;14.80;57.20;;;;;;5029797;28;20188;-50
2022/07/17 11:55:42;;;;;;;5.85;2.30;;;14.80;57.20;;;;;;5029425;28;20254;-50
2022/07/17 11:58:13;;;;;;;5.05;1.88;;;14.80;57.20;;;;;;5029260;28;20196;-50
2022/07/17 12:00:46;;;;;;;5.47;1.80;;;14.80;57.20;;;;;;5029523;28;20212;-46
2022/07/17 12:03:16;;;;;;;3.70;1.63;;;14.80;57.10;;;;;;5029722;28;20199;-53
2022/07/17 12:05:47;;;;;;;3.58;1.95;;;14.80;57.10;;;;;;5029892;28;20737;-53
2022/07/17 12:08:22;;;;;;;3.55;1.60;;;14.80;57.10;;;;;;5029869;28;20207;-47
2022/07/17 12:11:03;;;;;;;3.80;2.00;;;14.80;57.20;;;;;;5029808;28;20219;-50
2022/07/17 12:13:42;;;;;;;3.08;1.88;;;14.80;57.20;;;;;;5029184;28;20200;-48
2022/07/17 12:16:28;;;;;;;5.10;2.03;;;14.80;57.10;;;;;;5029514;28;20223;-45
2022/07/17 12:19:16;;;;;;;5.68;2.13;;;14.80;57.10;;;;;;5029832;28;20207;-57
2022/07/17 12:21:58;;;;;;;3.33;2.00;;;14.80;57.00;;;;;;5029710;28;20196;-45
2022/07/17 12:24:31;;;;;;;4.95;1.70;;;14.80;56.90;;;;;;5029437;28;20196;-45
2022/07/17 12:27:04;;;;;;;5.10;2.50;;;14.80;56.90;;;;;;5029275;28;20208;-48
2022/07/17 12:29:34;;;;;;;2.78;1.60;;;14.80;56.90;;;;;;5029095;28;20212;-45
2022/07/17 12:32:10;;;;;;;4.28;1.67;;;14.80;56.90;;;;;;5029351;28;20199;-44
2022/07/17 12:34:44;;;;;;;6.05;2.28;;;14.80;56.90;;;;;;5029508;28;20642;-45
2022/07/17 12:37:15;;;;;;;3.50;1.60;;;14.80;56.90;;;;;;5029075;28;20192;-51
2022/07/17 12:39:46;;;;;;;4.15;1.77;;;14.80;56.90;;;;;;5029662;28;20216;-47
2022/07/17 12:42:17;;;;;;;3.85;1.70;;;14.80;56.90;;;;;;5029427;28;20228;-47
2022/07/17 12:44:48;;;;;;;3.22;1.63;;;14.80;57.00;;;;;;5030238;28;20579;-52
2022/07/17 12:47:21;;;;;;;2.30;1.45;;;14.80;57.00;;;;;;5030056;28;20200;-44
2022/07/17 12:49:52;;;;;;;3.25;1.77;;;14.90;57.00;;;;;;5029741;28;20220;-54
2022/07/17 12:52:22;;;;;;;5.32;1.70;;;14.90;57.10;;;;;;5029516;28;20212;-46
2022/07/17 12:54:53;;;;;;;5.10;1.80;;;14.90;57.00;;;;;;5029526;28;20327;-50
2022/07/17 12:57:24;;;;;;;4.65;1.83;;;14.90;56.90;;;;;;5028787;28;20211;-45
2022/07/17 12:59:54;;;;;;;3.47;1.67;;;14.90;57.00;;;;;;5030322;28;20574;-56
2022/07/17 13:02:27;;;;;;;4.35;1.90;;;14.90;56.90;;;;;;5032275;28;20314;-45
2022/07/17 13:04:58;;;;;;;4.93;2.05;;;14.90;56.90;;;;;;5031855;28;20200;-49
2022/07/17 13:07:29;;;;;;;1.92;1.55;;;14.90;56.90;;;;;;5032557;28;20196;-47
2022/07/17 13:10:00;;;;;;;3.40;1.80;;;14.90;56.90;;;;;;5032890;28;20224;-50
2022/07/17 13:12:30;;;;;;;3.60;1.55;;;14.90;56.90;;;;;;5032554;28;20204;-44
2022/07/17 13:15:02;;;;;;;4.53;1.63;;;14.80;56.80;;;;;;5032969;28;20196;-58
2022/07/17 13:17:35;;;;;;;3.25;1.60;;;14.90;56.90;;;;;;5032597;28;20200;-49